Home > Products > Valid Products > TAF

000
FTUS45 KPSR 241100
TAFIPL
TAF
KIPL 241121Z 2412/2512 25005KT P6SM SKC
     FM241800 13007KT P6SM SCT250
     FM250100 22010KT P6SM SCT250=



000
FTUS45 KPSR 241100
TAFPHX
TAF
KPHX 241121Z 2412/2512 10006KT P6SM FEW250
     FM242000 25008KT P6SM SCT250=



000
FTUS45 KPSR 241100
TAFBLH
TAF
KBLH 241121Z 2412/2512 VRB04KT P6SM FEW250
     FM242100 19009KT P6SM SCT250=



000
FTUS45 KPSR 241100
TAFIWA
TAF
KIWA 241121Z 2412/2512 12006KT P6SM FEW250
     FM241900 26006KT P6SM SCT250
     FM250500 14007KT P6SM SCT250
      AMD LTD TO CLD VIS AND WIND TIL 241300=



000
FTUS45 KPSR 240800 AAA
TAFPHX
TAF AMD
KPHX 240835Z 2409/2506 VRB04KT P6SM FEW250
     FM241100 10006KT P6SM FEW250
     FM242000 25007KT P6SM SCT250=



000
FTUS45 KPSR 240500
TAFIPL
TAF
KIPL 240527Z 2406/2506 25006KT P6SM SKC
     FM241100 VRB04KT P6SM FEW250
     FM241800 10008KT P6SM SCT250
     FM250100 22007KT P6SM SCT250=



000
FTUS45 KPSR 240500
TAFBLH
TAF
KBLH 240527Z 2406/2506 32006KT P6SM FEW250
     FM241200 VRB04KT P6SM FEW250
     FM242100 19009KT P6SM SCT250=



000
FTUS45 KPSR 240500
TAFIWA
TAF
KIWA 240527Z 2406/2506 VRB04KT P6SM SCT250
     FM240800 13006KT P6SM FEW250
     FM241900 26006KT P6SM SCT250
     FM250500 14005KT P6SM SCT250
      AMD LTD TO CLD VIS AND WIND TIL 241300=



000
FTUS45 KPSR 240500
TAFPHX
TAF
KPHX 240527Z 2406/2506 23006KT P6SM SCT250
     FM240700 VRB04KT P6SM SCT250
     FM241100 10006KT P6SM FEW250
     FM242000 25007KT P6SM SCT250=



000
FTUS45 KPSR 240200 AAB
TAFPHX
TAF AMD
KPHX 240247Z 2403/2424 23006KT P6SM SCT250
     FM240700 VRB04KT P6SM SCT250
     FM241100 10005KT P6SM SCT250
     FM242000 25007KT P6SM SCT250=



000
FTUS45 KPSR 240200 AAA
TAFBLH
TAF AMD
KBLH 240203Z 2402/2424 31006KT P6SM SCT250
     FM241200 VRB04KT P6SM SCT250
     FM242100 19009KT P6SM SCT250=



000
FTUS45 KPSR 240200 AAA
TAFPHX
TAF AMD
KPHX 240202Z 2402/2424 23006KT P6SM SCT250
     FM240700 VRB04KT P6SM SCT250
     FM241100 10005KT P6SM SCT250
     FM242000 25007KT P6SM SCT250=



000
FTUS45 KPSR 240200 AAA
TAFIWA
TAF AMD
KIWA 240202Z 2402/2424 29005KT P6SM FEW200
     FM240400 VRB04KT P6SM SCT250
     FM240700 13006KT P6SM SCT250
     FM241900 26006KT P6SM SCT250
      AMD LTD TO CLD VIS AND WIND 2403/2413=



000
FTUS45 KPSR 232300
TAFIWA
TAF
KIWA 232320Z 2400/2424 24010G16KT P6SM FEW200
     FM240300 VRB04KT P6SM SCT250
     FM240600 13006KT P6SM SCT250
     FM241900 26006KT P6SM SCT250
      AMD LTD TO CLD VIS AND WIND 2403/2413=



000
FTUS45 KPSR 232300
TAFIPL
TAF
KIPL 232320Z 2400/2424 02009KT P6SM FEW250
     FM240200 27006KT P6SM SCT250
     FM241100 VRB04KT P6SM SCT250
     FM241800 08005KT P6SM SCT250=



000
FTUS45 KPSR 232300
TAFBLH
TAF
KBLH 232320Z 2400/2424 34010G16KT P6SM FEW250
     FM240300 34006KT P6SM SCT250
     FM241200 VRB04KT P6SM SCT250
     FM242100 19009KT P6SM SCT250=



000
FTUS45 KPSR 232300
TAFPHX
TAF
KPHX 232320Z 2400/2424 27012G20KT P6SM FEW200
     FM240300 23005KT P6SM SCT250
     FM240700 VRB04KT P6SM SCT250
     FM241100 10005KT P6SM SCT250
     FM242000 25007KT P6SM SCT250=



000
FTUS45 KPSR 232100 AAA
TAFIWA
TAF AMD
KIWA 232112Z 2321/2418 24009KT P6SM FEW250
     FM240400 13006KT P6SM SCT250=



000
FTUS45 KPSR 232100 AAA
TAFBLH
TAF AMD
KBLH 232100Z 2321/2418 34010KT P6SM FEW250
     FM240100 34005KT P6SM SCT250=



000
FTUS45 KPSR 232000 AAA
TAFPHX
TAF AMD
KPHX 232053Z 2321/2418 28012G20KT P6SM FEW250
     FM240300 23005KT P6SM SCT250
     FM240900 10005KT P6SM SCT250=



000
FTUS45 KPSR 231700
TAFBLH
TAF
KBLH 231720Z 2318/2418 34011G19KT P6SM FEW250
     FM240100 34005KT P6SM SCT250=



000
FTUS45 KPSR 231700
TAFPHX
TAF
KPHX 231720Z 2318/2418 29013KT P6SM FEW250
     FM240300 23005KT P6SM SCT250
     FM240900 10005KT P6SM SCT250=



000
FTUS45 KPSR 231700
TAFIPL
TAF
KIPL 231720Z 2318/2418 34009KT P6SM SKC
     FM240200 27005KT P6SM SCT250=



000
FTUS45 KPSR 231700
TAFIWA
TAF
KIWA 231720Z 2318/2418 22007KT P6SM FEW250
     FM231900 26012KT P6SM FEW250
     FM240400 13006KT P6SM SCT250=



000
FTUS45 KPSR 231600 AAA
TAFIPL
TAF AMD
KIPL 231618Z 2316/2412 34009KT P6SM FEW250
     FM240200 27005KT P6SM SCT250=



000
FTUS45 KPSR 231600 AAB
TAFPHX
TAF AMD
KPHX 231617Z 2316/2412 29011KT P6SM FEW250
     FM240300 23005KT P6SM SCT250
     FM240900 10005KT P6SM SCT250=



000
FTUS45 KPSR 231600 AAA
TAFIWA
TAF AMD
KIWA 231617Z 2316/2412 22007KT P6SM FEW250
     FM231900 26012KT P6SM FEW250
     FM240400 13006KT P6SM SCT250=



000
FTUS45 KPSR 231400 AAA
TAFPHX
TAF AMD
KPHX 231453Z 2315/2412 VRB04KT P6SM FEW250
     FM231800 25013KT P6SM FEW250
     FM240300 23005KT P6SM SCT250
     FM240900 10005KT P6SM SCT250=



000
FTUS45 KPSR 231100
TAFPHX
TAF
KPHX 231120Z 2312/2412 VRB05KT P6SM FEW250
     FM231800 25013KT P6SM FEW250
     FM240300 23005KT P6SM SCT250
     FM240900 10005KT P6SM SCT250=



000
FTUS45 KPSR 231100
TAFIPL
TAF
KIPL 231120Z 2312/2412 27007KT P6SM FEW250
     FM231700 34009KT P6SM FEW250
     FM240200 27005KT P6SM SCT250=



000
FTUS45 KPSR 231100
TAFIWA
TAF
KIWA 231120Z 2312/2412 18007KT P6SM FEW250
     FM231800 26012KT P6SM FEW250
     FM240400 13006KT P6SM SCT250
      AMD LTD TO CLD VIS AND WIND TIL 231300=



000
FTUS45 KPSR 231100
TAFBLH
TAF
KBLH 231120Z 2312/2412 32008KT P6SM FEW250
     FM231600 34011G19KT P6SM FEW250
     FM240100 31005KT P6SM SCT250=



000
FTUS45 KPSR 230900 AAA
TAFBLH
TAF AMD
KBLH 230902Z 2309/2406 VRB05KT P6SM FEW250
     FM231200 32008KT P6SM SCT250
     FM231600 33011G19KT P6SM FEW250
     FM240100 31005KT P6SM SCT250=



000
FTUS45 KPSR 230800 AAA
TAFIPL
TAF AMD
KIPL 230859Z 2309/2406 28008KT P6SM FEW250
     FM231700 34009KT P6SM FEW250
     FM240200 26005KT P6SM SCT250=



000
FTUS45 KPSR 230800 AAA
TAFIWA
TAF AMD
KIWA 230849Z 2309/2406 22004KT P6SM FEW250
     FM231000 14007KT P6SM SCT250
     FM231800 26012KT P6SM FEW250
     FM240400 VRB05KT P6SM SCT250
      AMD LTD TO CLD VIS AND WIND TIL 231300=



000
FTUS45 KPSR 230800 AAA
TAFPHX
TAF AMD
KPHX 230845Z 2309/2406 25010KT P6SM FEW250
     FM231200 VRB05KT P6SM SCT250
     FM231800 25013KT P6SM FEW250
     FM240300 28005KT P6SM SCT250=



000
FTUS45 KPSR 230500
TAFIWA
TAF
KIWA 230520Z 2306/2406 24011KT P6SM SCT200
     FM230900 14007KT P6SM SKC
     FM231400 VRB05KT P6SM SKC
     FM231800 27012G18KT P6SM SKC
     FM240300 VRB05KT P6SM SKC
      AMD LTD TO CLD VIS AND WIND TIL 231300=



000
FTUS45 KPSR 230500
TAFPHX
TAF
KPHX 230520Z 2306/2406 24010KT P6SM SCT220
     FM231200 VRB05KT P6SM SKC
     FM231700 24008KT P6SM SKC
     FM232100 27011G18KT P6SM SKC
     FM240300 29005KT P6SM SKC=



000
FTUS45 KPSR 230500
TAFIPL
TAF
KIPL 230520Z 2306/2406 27012G20KT P6SM SKC
     FM231700 34008KT P6SM SKC
     FM240200 VRB05KT P6SM SKC=



000
FTUS45 KPSR 230500
TAFBLH
TAF
KBLH 230520Z 2306/2406 29012KT P6SM FEW250
     FM230900 35007KT P6SM FEW250
     FM231900 33011G18KT P6SM SKC=



000
FTUS45 KPSR 230200 AAA
TAFPHX
TAF AMD
KPHX 230245Z 2303/2324 27012G22KT P6SM FEW120 BKN250
     FM230400 24012KT P6SM SCT250
     FM231200 VRB05KT P6SM FEW250
     FM231800 27008KT P6SM SKC=



000
FTUS45 KPSR 230100 AAA
TAFIPL
TAF AMD
KIPL 230149Z 2302/2324 27016G26KT P6SM FEW250
     FM230500 27014KT P6SM SKC
     FM231700 34008KT P6SM SKC=



000
FTUS45 KPSR 222300
TAFPHX
TAF
KPHX 222320Z 2300/2324 27012G22KT P6SM FEW120 BKN250
     FM230400 24012KT P6SM SCT250
     FM231200 VRB05KT P6SM FEW250
     FM231800 27008KT P6SM SKC=



000
FTUS45 KPSR 222300
TAFIWA
TAF
KIWA 222320Z 2300/2324 25013G22KT P6SM FEW100 BKN250
     FM230200 25011KT P6SM SCT250
     FM230900 14007KT P6SM FEW250
     FM231400 VRB05KT P6SM SKC
     FM231900 27011G18KT P6SM SKC
      AMD LTD TO CLD VIS AND WIND 2303/2313=



000
FTUS45 KPSR 222300
TAFIPL
TAF
KIPL 222320Z 2300/2324 27020G32KT P6SM FEW150 OVC250
     FM230500 27014KT P6SM SCT250
     FM231700 34008KT P6SM SKC=



000
FTUS45 KPSR 222300
TAFBLH
TAF
KBLH 222320Z 2300/2324 23020G32KT P6SM FEW150 OVC250
     FM230400 29012KT P6SM FEW250
     FM230900 35008KT P6SM FEW250
     FM232000 33011G18KT P6SM SKC=



000
FTUS45 KPSR 222000 CCA
TAFPHX
TAF COR
KPHX 222055Z 2221/2318 27012G22KT P6SM FEW120 BKN250
     FM230300 24012KT P6SM SCT250
     FM231200 VRB03KT P6SM FEW250=



000
FTUS45 KPSR 222000 AAA
TAFPHX
TAF AMD
KPHX 222054Z 2221/2318 24012G22KT P6SM FEW120 BKN250
     FM230300 24012KT P6SM SCT250
     FM231200 VRB03KT P6SM FEW250=



000
FTUS45 KPSR 221700
TAFIWA
TAF
KIWA 221720Z 2218/2318 15007KT P6SM BKN250
     FM221900 19009G16KT P6SM FEW120 BKN250
     FM222200 25013G22KT P6SM FEW150 BKN250
     FM230200 25011KT P6SM SCT250
     FM230900 14006KT P6SM FEW250=



000
FTUS45 KPSR 221700
TAFPHX
TAF
KPHX 221720Z 2218/2318 15007KT P6SM BKN250
     FM221900 21010KT P6SM FEW120 BKN250
     FM222200 24012G22KT P6SM FEW150 BKN250
     FM230300 24012KT P6SM SCT250
     FM231200 VRB03KT P6SM FEW250=



000
FTUS45 KPSR 221700
TAFIPL
TAF
KIPL 221720Z 2218/2318 25010G19KT P6SM BKN250
     FM222300 29020G32KT P6SM SCT250
     FM230500 27014KT P6SM FEW250=



000
FTUS45 KPSR 221700
TAFBLH
TAF
KBLH 221720Z 2218/2318 21015G25KT P6SM BKN250
     FM222200 23020G32KT P6SM SCT250
     FM230400 27012KT P6SM FEW250
     FM230900 31008KT P6SM FEW250=



000
FTUS45 KPSR 221600 AAA
TAFIWA
TAF AMD
KIWA 221645Z 2217/2312 15007KT P6SM BKN250
     FM221900 19009G16KT P6SM FEW120 BKN250
     FM222200 24013G22KT P6SM FEW150 BKN250
     FM230200 23011KT P6SM SCT250
     FM230900 14006KT P6SM FEW250=



000
FTUS45 KPSR 221600 AAB
TAFPHX
TAF AMD
KPHX 221645Z 2217/2312 10007KT P6SM BKN250
     FM221900 18010G17KT P6SM FEW120 BKN250
     FM222200 23012G22KT P6SM FEW150 BKN250
     FM230300 24013KT P6SM SCT250=



000
FTUS45 KPSR 221600 AAA
TAFBLH
TAF AMD
KBLH 221628Z 2216/2312 21013G22KT P6SM BKN250
     FM222200 23019G32KT P6SM SCT250
     FM230400 25012KT P6SM SKC
     FM230900 31008KT P6SM SCT250=



000
FTUS45 KPSR 221400 AAA
TAFPHX
TAF AMD
KPHX 221453Z 2215/2312 10007KT P6SM BKN250
     FM221800 18010G17KT P6SM FEW120 BKN250
     FM222100 23012G22KT P6SM FEW150 BKN250
     FM230300 24013KT P6SM SCT250=



000
FTUS45 KPSR 221100
TAFBLH
TAF
KBLH 221120Z 2212/2312 18009KT P6SM BKN250
     FM221700 21013G22KT P6SM BKN250
     FM222200 23019G32KT P6SM SCT250
     FM230400 25012KT P6SM SKC
     FM230900 31008KT P6SM SCT250=



000
FTUS45 KPSR 221100
TAFPHX
TAF
KPHX 221120Z 2212/2312 11007KT P6SM BKN250
     FM221800 18010G17KT P6SM FEW120 BKN250
     FM222100 23012G22KT P6SM FEW150 BKN250
     FM230300 24013KT P6SM SCT250=



000
FTUS45 KPSR 221100
TAFIPL
TAF
KIPL 221120Z 2212/2312 26007KT P6SM BKN250
     FM221700 25010G19KT P6SM BKN250
     FM222300 26019G31KT P6SM SCT250
     FM230500 27014KT P6SM SKC=



000
FTUS45 KPSR 221100
TAFIWA
TAF
KIWA 221120Z 2212/2312 12007KT P6SM BKN250
     FM221700 19009G16KT P6SM FEW120 BKN250
     FM222000 24013G22KT P6SM FEW150 BKN250
     FM230200 23011KT P6SM SCT250
     FM230900 14006KT P6SM FEW250
      AMD LTD TO CLD VIS AND WIND TIL 221300=



000
FTUS45 KPSR 220900 AAB
TAFPHX
TAF AMD
KPHX 220914Z 2209/2306 11007KT P6SM BKN250
     FM221800 19011KT P6SM FEW120 BKN250
     FM222100 24012G21KT P6SM FEW150 BKN250
     FM230300 25013KT P6SM SCT250=



000
FTUS45 KPSR 220800 AAA
TAFPHX
TAF AMD
KPHX 220850Z 2209/2306 26004KT P6SM FEW250
     FM221000 12007KT P6SM BKN250
     FM221800 19011KT P6SM FEW120 BKN250
     FM222100 24012G21KT P6SM FEW150 BKN250
     FM230300 25013KT P6SM SCT250=



000
FTUS45 KPSR 220500
TAFPHX
TAF
KPHX 220527Z 2206/2306 30005KT P6SM SKC
     FM221000 11008KT P6SM FEW250
     FM221900 20011KT P6SM FEW200 BKN250
     FM222200 24014G22KT P6SM FEW180 BKN250
     FM230400 25014KT P6SM FEW250=



000
FTUS45 KPSR 220500
TAFIWA
TAF
KIWA 220527Z 2206/2306 12008KT P6SM FEW250
     FM221800 19010G16KT P6SM FEW200 BKN250
     FM222100 25015G25KT P6SM FEW180 BKN250
     FM230300 23014KT P6SM FEW250
      AMD LTD TO CLD VIS AND WIND TIL 221300=



000
FTUS45 KPSR 220500
TAFIPL
TAF
KIPL 220527Z 2206/2306 25008KT P6SM FEW250
     FM221800 24014G22KT P6SM BKN250
     FM222200 27024G34KT P6SM SCT250
     FM230400 27016KT P6SM SKC=



000
FTUS45 KPSR 220500
TAFBLH
TAF
KBLH 220527Z 2206/2306 19009KT P6SM SKC
     FM221700 20015G25KT P6SM SCT250
     FM222200 23024G35KT P6SM FEW250
     FM230300 26016KT P6SM SKC=



000
FTUS45 KPSR 220200 AAA
TAFPHX
TAF AMD
KPHX 220240Z 2203/2224 28008KT P6SM SKC
     FM221000 11008KT P6SM FEW250
     FM221900 20011KT P6SM FEW200 BKN250
     FM222200 24014G22KT P6SM FEW180 BKN250=



000
FTUS45 KPSR 212300
TAFPHX
TAF
KPHX 212326Z 2200/2224 20009KT P6SM SKC
     FM220100 26007KT P6SM SKC
     FM221000 11008KT P6SM FEW250
     FM221900 20011KT P6SM FEW200 BKN250
     FM222200 24014G22KT P6SM FEW180 BKN250=



000
FTUS45 KPSR 212300
TAFIWA
TAF
KIWA 212326Z 2200/2224 29006KT P6SM SKC
     FM220600 12008KT P6SM FEW250
     FM221800 19010KT P6SM FEW200 BKN250
     FM222100 25015G25KT P6SM FEW180 BKN250
      AMD LTD TO CLD VIS AND WIND 2203/2213=



000
FTUS45 KPSR 212300
TAFIPL
TAF
KIPL 212326Z 2200/2224 14009KT P6SM SKC
     FM220400 24008KT P6SM FEW250
     FM221800 24014G22KT P6SM SCT250
     FM222200 27022G32KT P6SM SCT250=



000
FTUS45 KPSR 212300
TAFBLH
TAF
KBLH 212326Z 2200/2224 21012G18KT P6SM SKC
     FM220200 19009KT P6SM SKC
     FM221700 20015G25KT P6SM SCT250
     FM222200 23024G35KT P6SM FEW250=



000
FTUS45 KPSR 212300 AAB
TAFPHX
TAF AMD
KPHX 212301Z 2123/2218 20010KT P6SM SKC
     FM220000 27007KT P6SM SKC
     FM221000 10005KT P6SM FEW250=



000
FTUS45 KPSR 212200 AAA
TAFBLH
TAF AMD
KBLH 212206Z 2122/2218 18011G18KT P6SM SKC
     FM220100 19009KT P6SM SKC=



000
FTUS45 KPSR 212200 AAA
TAFIPL
TAF AMD
KIPL 212204Z 2122/2218 14009KT P6SM SKC
     FM220500 25008KT P6SM FEW250=



000
FTUS45 KPSR 212100 AAA
TAFPHX
TAF AMD
KPHX 212108Z 2121/2218 25007KT P6SM SKC
     FM221000 10005KT P6SM FEW250=



000
FTUS45 KPSR 211700
TAFBLH
TAF
KBLH 211720Z 2118/2218 VRB05KT P6SM SKC
     FM212000 19009KT P6SM SKC=



000
FTUS45 KPSR 211700
TAFPHX
TAF
KPHX 211720Z 2118/2218 12005KT P6SM SKC
     FM212000 25007KT P6SM SKC
     FM221000 10005KT P6SM FEW250=



000
FTUS45 KPSR 211700
TAFIWA
TAF
KIWA 211720Z 2118/2218 17005KT P6SM SKC
     FM211900 27006KT P6SM SKC
     FM220600 12006KT P6SM FEW250=



000
FTUS45 KPSR 211700
TAFIPL
TAF
KIPL 211720Z 2118/2218 VRB04KT P6SM SKC
     FM220300 25008KT P6SM FEW250=



000
FTUS45 KPSR 211400 AAA
TAFPHX
TAF AMD
KPHX 211436Z 2115/2212 11005KT P6SM SKC
     FM212000 25007KT P6SM SKC
     FM221000 10005KT P6SM FEW250=



    US Dept of Commerce
    National Oceanic and Atmospheric Administration
    National Weather Service
    1325 East West Highway
    Silver Spring, MD 20910
    Page Author: NWS Internet Services Team
Disclaimer
Information Quality
Credits
Glossary
Privacy Policy
Freedom of Information Act (FOIA)
About Us
Career Opportunities